Time;durP1;ratioP1;P1;durP2;ratioP2;P2;SDS_P1;SDS_P2;PMS_P1;PMS_P2;Temp;Humidity;BMP_temperature;BMP_pressure;BME280_temperature;BME280_humidity;BME280_pressure;Samples;Min_cycle;Max_cycle;Signal;HPM_P1;HPM_P2
2021/12/07 00:00:26;;;;;;;0.50;0.50;;;2.10;99.90;;;;;;5288455;27;20026;-76
2021/12/07 00:03:00;;;;;;;2.05;1.65;;;2.10;99.90;;;;;;5304623;27;20228;-76
2021/12/07 00:05:31;;;;;;;2.60;2.42;;;2.10;99.90;;;;;;5288595;27;20027;-76
2021/12/07 00:08:03;;;;;;;0.75;0.75;;;2.00;99.90;;;;;;5303598;27;20039;-76
2021/12/07 00:10:35;;;;;;;1.20;1.20;;;2.00;99.90;;;;;;5287129;27;20243;-76
2021/12/07 00:13:11;;;;;;;0.50;0.50;;;2.00;99.90;;;;;;5287887;27;20027;-76
2021/12/07 00:15:42;;;;;;;0.50;0.50;;;2.00;99.90;;;;;;5286847;27;20029;-76
2021/12/07 00:18:17;;;;;;;0.88;0.88;;;1.90;99.90;;;;;;5285086;27;20094;-76
2021/12/07 00:20:50;;;;;;;0.47;0.47;;;1.90;99.90;;;;;;5286669;27;20033;-76
2021/12/07 00:23:26;;;;;;;0.63;0.63;;;1.90;99.90;;;;;;5288126;27;20030;-76
2021/12/07 00:25:57;;;;;;;0.65;0.65;;;1.90;99.90;;;;;;5297602;27;20061;-76
2021/12/07 00:28:36;;;;;;;0.88;0.88;;;1.90;99.90;;;;;;5306254;27;20035;-76
2021/12/07 00:31:24;;;;;;;0.88;0.88;;;1.90;99.90;;;;;;5287910;27;20019;-76
2021/12/07 00:36:44;;;;;;;0.68;0.68;;;1.90;99.90;;;;;;5303558;27;20027;-75
2021/12/07 00:39:25;;;;;;;2.47;2.38;;;1.90;99.90;;;;;;5285217;27;20080;-74
2021/12/07 00:41:58;;;;;;;0.73;0.73;;;1.80;99.90;;;;;;5245871;28;20602;-74
2021/12/07 00:44:31;;;;;;;2.83;2.63;;;1.80;99.90;;;;;;5263678;28;20073;-75
2021/12/07 00:47:03;;;;;;;0.65;0.65;;;1.80;99.90;;;;;;5260550;28;20212;-75
2021/12/07 00:49:37;;;;;;;0.60;0.60;;;1.70;99.90;;;;;;5263933;28;20023;-75
2021/12/07 00:52:08;;;;;;;0.90;0.90;;;1.70;99.90;;;;;;5258581;28;20294;-75
2021/12/07 00:54:42;;;;;;;0.82;0.82;;;1.60;99.90;;;;;;5262350;28;20034;-75
2021/12/07 00:57:16;;;;;;;1.67;1.58;;;1.60;99.90;;;;;;5262542;28;20103;-74
2021/12/07 00:59:47;;;;;;;0.70;0.70;;;1.60;99.90;;;;;;5247696;28;20038;-77
2021/12/07 01:02:18;;;;;;;0.60;0.60;;;1.70;99.90;;;;;;5264379;28;20268;-75
2021/12/07 01:04:58;;;;;;;0.50;0.50;;;1.70;99.90;;;;;;5262343;28;20024;-75
2021/12/07 01:24:44;;;;;;;0.70;0.70;;;1.60;99.90;;;;;;5212133;28;20036;-76
2021/12/07 01:27:20;;;;;;;1.55;1.48;;;1.50;99.90;;;;;;5229299;28;20062;-76
2021/12/07 01:30:08;;;;;;;0.40;0.40;;;1.60;99.90;;;;;;5223709;28;20071;-75
2021/12/07 01:35:22;;;;;;;0.65;0.65;;;1.50;99.90;;;;;;5213210;28;20215;-75
2021/12/07 01:41:07;;;;;;;1.02;1.02;;;1.40;99.90;;;;;;5214431;28;20256;-74
2021/12/07 01:52:28;;;;;;;0.50;0.50;;;1.50;99.90;;;;;;5217823;28;20036;-75
2021/12/07 02:00:40;;;;;;;0.60;0.60;;;1.50;99.90;;;;;;5251129;28;20024;-74
2021/12/07 02:03:19;;;;;;;0.68;0.68;;;1.50;99.90;;;;;;5265744;28;20028;-77
2021/12/07 02:05:51;;;;;;;0.60;0.60;;;1.60;99.90;;;;;;5266099;28;20063;-75
2021/12/07 02:08:23;;;;;;;0.73;0.73;;;1.50;99.90;;;;;;5260740;28;20095;-75
2021/12/07 02:11:00;;;;;;;0.90;0.90;;;1.50;99.90;;;;;;5248900;28;20428;-75
2021/12/07 02:16:02;;;;;;;0.55;0.55;;;1.60;99.90;;;;;;5262897;28;20325;-75
2021/12/07 02:18:35;;;;;;;0.70;0.70;;;1.50;99.90;;;;;;5231260;28;20398;-77
2021/12/07 02:21:22;;;;;;;0.80;0.80;;;1.60;99.90;;;;;;5266749;28;20028;-75
2021/12/07 02:23:54;;;;;;;1.10;1.10;;;1.60;99.90;;;;;;5265878;28;20020;-76
2021/12/07 02:26:25;;;;;;;0.60;0.60;;;1.50;99.90;;;;;;5264764;28;20040;-74
2021/12/07 02:29:03;;;;;;;0.50;0.50;;;1.60;99.90;;;;;;5264826;28;20095;-75
2021/12/07 02:31:36;;;;;;;0.68;0.68;;;1.60;99.90;;;;;;5265888;28;20073;-75
2021/12/07 02:34:10;;;;;;;1.15;1.15;;;1.60;99.90;;;;;;5266479;28;20024;-75
2021/12/07 02:36:43;;;;;;;0.63;0.63;;;1.60;99.90;;;;;;5264547;28;20047;-74
2021/12/07 02:39:15;;;;;;;1.23;1.23;;;1.60;99.90;;;;;;5266858;28;20040;-74
2021/12/07 02:41:50;;;;;;;0.50;0.50;;;1.60;99.90;;;;;;5247556;28;20312;-75
2021/12/07 02:44:21;;;;;;;0.90;0.90;;;1.50;99.90;;;;;;5246386;28;20048;-75
2021/12/07 02:46:57;;;;;;;0.65;0.65;;;1.50;99.90;;;;;;5267044;28;20046;-74
2021/12/07 02:49:30;;;;;;;0.80;0.80;;;1.50;99.90;;;;;;5264355;28;20036;-74
2021/12/07 02:52:03;;;;;;;0.70;0.70;;;1.50;99.90;;;;;;5260257;28;20028;-76
2021/12/07 02:54:43;;;;;;;0.75;0.75;;;1.50;99.90;;;;;;5244141;28;20356;-74
2021/12/07 02:57:19;;;;;;;0.70;0.70;;;1.60;99.90;;;;;;5245633;28;20043;-75
2021/12/07 03:00:08;;;;;;;0.70;0.70;;;1.60;99.90;;;;;;5252630;28;20099;-74
2021/12/07 03:02:52;;;;;;;0.40;0.40;;;1.50;99.90;;;;;;5246040;28;20249;-74
2021/12/07 03:05:45;;;;;;;0.80;0.80;;;1.50;99.90;;;;;;5276702;28;20330;-75
2021/12/07 03:28:24;;;;;;;0.80;0.80;;;1.40;99.90;;;;;;5248324;28;20024;-75
2021/12/07 03:30:58;;;;;;;0.70;0.70;;;1.40;99.90;;;;;;5250225;28;20086;-76
2021/12/07 03:33:38;;;;;;;0.60;0.60;;;1.40;99.90;;;;;;5282135;28;20039;-76
2021/12/07 03:36:12;;;;;;;0.57;0.57;;;1.40;99.90;;;;;;5276073;28;20069;-75
2021/12/07 03:38:43;;;;;;;0.70;0.70;;;1.40;99.90;;;;;;5281082;28;20366;-75
2021/12/07 03:41:18;;;;;;;2.15;2.05;;;1.30;99.90;;;;;;5245531;28;20044;-76
2021/12/07 03:43:55;;;;;;;0.60;0.60;;;1.30;99.90;;;;;;5266274;28;20015;-76
2021/12/07 03:46:26;;;;;;;0.63;0.63;;;1.30;99.90;;;;;;5279252;28;20102;-75
2021/12/07 03:49:01;;;;;;;0.75;0.75;;;1.30;99.90;;;;;;5286052;28;20039;-76
2021/12/07 03:51:32;;;;;;;0.95;0.95;;;1.20;99.90;;;;;;5280102;28;20076;-76
2021/12/07 03:54:09;;;;;;;0.85;0.75;;;1.20;99.90;;;;;;5259317;28;20335;-76
2021/12/07 03:56:47;;;;;;;1.17;1.13;;;1.20;99.90;;;;;;5243043;28;20032;-76
2021/12/07 03:59:18;;;;;;;0.50;0.50;;;1.20;99.90;;;;;;5243089;28;20032;-75
2021/12/07 04:01:51;;;;;;;0.93;0.93;;;1.30;99.90;;;;;;5241419;28;20044;-75
2021/12/07 04:04:23;;;;;;;0.60;0.60;;;1.20;99.90;;;;;;5247228;28;20032;-75
2021/12/07 04:06:59;;;;;;;1.25;1.25;;;1.30;99.90;;;;;;5263672;28;20050;-74
2021/12/07 04:09:33;;;;;;;0.70;0.70;;;1.30;99.90;;;;;;5244845;28;20028;-75
2021/12/07 04:12:09;;;;;;;0.90;0.90;;;1.30;99.90;;;;;;5263349;28;20065;-75
2021/12/07 04:14:42;;;;;;;0.40;0.40;;;1.30;99.90;;;;;;5262591;28;20047;-76
2021/12/07 04:17:21;;;;;;;1.15;1.15;;;1.30;99.90;;;;;;5264639;28;20106;-75
2021/12/07 04:19:52;;;;;;;1.63;1.52;;;1.30;99.90;;;;;;5264387;28;20023;-75
2021/12/07 04:22:26;;;;;;;0.80;0.80;;;1.40;99.90;;;;;;5246956;28;20373;-77
2021/12/07 04:24:59;;;;;;;1.63;1.60;;;1.40;99.90;;;;;;5254846;28;20084;-74
2021/12/07 04:27:37;;;;;;;3.70;3.42;;;1.40;99.90;;;;;;5242528;28;20062;-74
2021/12/07 04:30:24;;;;;;;0.60;0.60;;;1.40;99.90;;;;;;5229284;28;20284;-75
2021/12/07 04:32:55;;;;;;;0.68;0.68;;;1.30;99.90;;;;;;5242770;28;20432;-74
2021/12/07 04:35:30;;;;;;;0.50;0.50;;;1.30;99.90;;;;;;5237020;28;20118;-77
2021/12/07 04:38:01;;;;;;;0.82;0.82;;;1.30;99.90;;;;;;5261332;28;20020;-77
2021/12/07 04:40:37;;;;;;;0.68;0.68;;;1.30;99.90;;;;;;5242217;28;20104;-74
2021/12/07 04:43:13;;;;;;;0.50;0.50;;;1.30;99.90;;;;;;5242524;28;20104;-75
2021/12/07 04:45:56;;;;;;;0.80;0.80;;;1.30;99.90;;;;;;5235833;28;20466;-75
2021/12/07 04:49:11;;;;;;;0.60;0.60;;;1.40;99.90;;;;;;5242225;28;20230;-75
2021/12/07 04:59:42;;;;;;;0.40;0.40;;;1.00;99.90;;;;;;5262662;28;20035;-74
2021/12/07 05:02:17;;;;;;;0.50;0.50;;;1.00;99.90;;;;;;5245868;28;20675;-74
2021/12/07 05:04:50;;;;;;;0.88;0.88;;;0.90;99.90;;;;;;5263500;28;20044;-75
2021/12/07 05:07:32;;;;;;;1.23;1.20;;;1.00;99.90;;;;;;5260726;28;20037;-75
2021/12/07 05:13:25;;;;;;;1.35;1.35;;;1.10;99.90;;;;;;5202059;28;20049;-74
2021/12/07 05:16:11;;;;;;;1.15;1.15;;;1.00;99.90;;;;;;5190609;28;20040;-74
2021/12/07 05:24:21;;;;;;;0.50;0.50;;;1.20;99.90;;;;;;5218350;28;20064;-74
2021/12/07 05:38:07;;;;;;;0.80;0.80;;;1.20;99.90;;;;;;5210378;28;20056;-76
2021/12/07 05:40:43;;;;;;;0.50;0.50;;;1.20;99.90;;;;;;5230017;28;20060;-74
2021/12/07 05:43:14;;;;;;;0.60;0.60;;;1.30;99.90;;;;;;5239951;28;20068;-76
2021/12/07 05:45:45;;;;;;;0.82;0.82;;;1.30;99.90;;;;;;5212754;28;20576;-76
2021/12/07 05:48:19;;;;;;;0.85;0.73;;;1.30;99.90;;;;;;5224852;28;20037;-76
2021/12/07 05:51:02;;;;;;;0.63;0.63;;;1.30;99.90;;;;;;5253752;28;20032;-76
2021/12/07 05:53:35;;;;;;;2.90;2.70;;;1.30;99.90;;;;;;5228803;28;20454;-76
2021/12/07 05:56:12;;;;;;;0.70;0.70;;;1.30;99.90;;;;;;5251935;28;20092;-76
2021/12/07 05:58:47;;;;;;;0.95;0.95;;;1.30;99.90;;;;;;5260932;28;20096;-76
2021/12/07 06:01:18;;;;;;;0.50;0.50;;;1.30;99.90;;;;;;5262255;28;20295;-76
2021/12/07 06:03:51;;;;;;;1.95;1.85;;;1.40;99.90;;;;;;5260165;28;20028;-74
2021/12/07 06:06:22;;;;;;;0.70;0.70;;;1.40;99.90;;;;;;5260617;28;20028;-74
2021/12/07 06:08:53;;;;;;;0.50;0.50;;;1.40;99.90;;;;;;5239055;28;20387;-73
2021/12/07 06:11:24;;;;;;;0.50;0.50;;;1.40;99.90;;;;;;5244118;28;20661;-74
2021/12/07 06:13:57;;;;;;;0.60;0.60;;;1.40;99.90;;;;;;5261234;28;20051;-73
2021/12/07 06:16:31;;;;;;;0.50;0.50;;;1.40;99.90;;;;;;5261050;28;20075;-74
2021/12/07 06:19:02;;;;;;;1.45;1.45;;;1.40;99.90;;;;;;5257124;28;20024;-74
2021/12/07 06:21:35;;;;;;;1.80;1.70;;;1.30;99.90;;;;;;5257507;28;20066;-73
2021/12/07 06:24:06;;;;;;;1.48;1.48;;;1.40;99.90;;;;;;5253895;28;20031;-73
2021/12/07 06:26:37;;;;;;;0.63;0.63;;;1.30;99.90;;;;;;5259224;28;20044;-74
2021/12/07 06:29:12;;;;;;;1.52;1.42;;;1.20;99.90;;;;;;5264710;28;20198;-74
2021/12/07 06:31:46;;;;;;;2.17;1.70;;;1.10;99.90;;;;;;5245348;28;20222;-74
2021/12/07 06:34:20;;;;;;;;;;;1.00;99.90;;;;;;5265598;28;20024;-73
2021/12/07 06:36:54;;;;;;;0.95;0.95;;;0.90;99.90;;;;;;5266398;28;19912;-74
2021/12/07 06:39:25;;;;;;;0.60;0.60;;;0.80;99.90;;;;;;5244456;28;20373;-74
2021/12/07 06:41:58;;;;;;;1.15;1.15;;;0.70;99.90;;;;;;5259301;28;20032;-74
2021/12/07 06:44:31;;;;;;;1.13;1.13;;;0.60;99.90;;;;;;5265659;28;20044;-74
2021/12/07 06:47:03;;;;;;;3.43;3.13;;;0.60;99.90;;;;;;5231595;28;20056;-75
2021/12/07 06:49:40;;;;;;;0.52;0.52;;;0.60;99.90;;;;;;5228044;28;20052;-73
2021/12/07 06:52:11;;;;;;;0.60;0.60;;;0.50;99.90;;;;;;5247387;28;20081;-73
2021/12/07 06:54:47;;;;;;;0.98;0.98;;;0.60;99.90;;;;;;5265620;28;20387;-74
2021/12/07 06:57:18;;;;;;;0.70;0.70;;;0.60;99.90;;;;;;5266768;28;20036;-73
2021/12/07 06:59:57;;;;;;;1.15;1.15;;;0.70;99.90;;;;;;5246296;28;20040;-74
2021/12/07 07:02:27;;;;;;;2.63;2.53;;;0.70;99.90;;;;;;5262959;28;20095;-73
2021/12/07 07:05:02;;;;;;;1.23;1.17;;;0.70;99.90;;;;;;5265355;28;20047;-75
2021/12/07 07:07:34;;;;;;;0.75;0.75;;;0.60;99.90;;;;;;5266266;28;20032;-75
2021/12/07 07:10:07;;;;;;;0.53;0.53;;;0.60;99.90;;;;;;5264836;28;20032;-74
2021/12/07 07:12:40;;;;;;;0.98;0.98;;;0.60;99.90;;;;;;5260212;28;20028;-75
2021/12/07 07:15:16;;;;;;;0.50;0.50;;;0.60;99.90;;;;;;5245445;28;20020;-75
2021/12/07 07:17:55;;;;;;;0.50;0.50;;;0.60;99.90;;;;;;5248915;28;20036;-75
2021/12/07 07:20:31;;;;;;;0.98;0.98;;;0.70;99.90;;;;;;5264713;28;20233;-75
2021/12/07 07:23:06;;;;;;;0.55;0.55;;;0.80;99.90;;;;;;5231071;28;20032;-75
2021/12/07 07:25:45;;;;;;;2.08;1.95;;;0.80;99.90;;;;;;5266916;28;20063;-74
2021/12/07 07:28:16;;;;;;;0.75;0.75;;;0.80;99.90;;;;;;5246695;28;20033;-74
2021/12/07 07:30:47;;;;;;;1.05;1.05;;;0.80;99.90;;;;;;5263692;28;20056;-74
2021/12/07 07:33:18;;;;;;;0.50;0.50;;;0.90;99.90;;;;;;5265553;28;20032;-74
2021/12/07 07:35:54;;;;;;;0.40;0.40;;;0.90;99.90;;;;;;5263462;28;20257;-74
2021/12/07 07:38:25;;;;;;;0.47;0.47;;;1.00;99.90;;;;;;5249200;28;20432;-76
2021/12/07 07:40:57;;;;;;;0.40;0.40;;;1.00;99.90;;;;;;5261841;28;20389;-74
2021/12/07 07:43:37;;;;;;;0.65;0.65;;;1.20;99.90;;;;;;5280375;28;20069;-73
2021/12/07 07:46:13;;;;;;;0.50;0.50;;;1.20;99.90;;;;;;5296446;27;20027;-74
2021/12/07 07:48:45;;;;;;;0.50;0.50;;;1.30;99.90;;;;;;5297501;27;20045;-74
2021/12/07 07:51:16;;;;;;;0.68;0.68;;;1.30;99.90;;;;;;5269371;28;20276;-74
2021/12/07 07:53:50;;;;;;;0.98;0.98;;;1.40;99.90;;;;;;5287114;28;20388;-74
2021/12/07 07:56:24;;;;;;;0.70;0.70;;;1.40;99.90;;;;;;5285357;28;20088;-74
2021/12/07 07:58:58;;;;;;;0.80;0.80;;;1.60;99.90;;;;;;5267651;28;20445;-74
2021/12/07 08:01:31;;;;;;;1.15;1.15;;;1.80;99.90;;;;;;5267055;28;20173;-74
2021/12/07 08:04:03;;;;;;;1.17;1.17;;;1.80;99.90;;;;;;5286168;28;20023;-74
2021/12/07 08:06:34;;;;;;;0.80;0.80;;;1.90;99.90;;;;;;5281883;28;20039;-73
2021/12/07 08:09:08;;;;;;;0.50;0.50;;;1.80;99.90;;;;;;5264451;28;20334;-75
2021/12/07 08:11:40;;;;;;;0.70;0.70;;;1.80;99.90;;;;;;5277003;28;20027;-74
2021/12/07 08:14:11;;;;;;;0.95;0.95;;;1.80;99.90;;;;;;5267962;28;20046;-73
2021/12/07 08:16:46;;;;;;;1.02;1.02;;;1.90;99.90;;;;;;5296980;27;20042;-74
2021/12/07 08:19:22;;;;;;;0.55;0.55;;;1.90;99.90;;;;;;5288922;27;20020;-73
2021/12/07 08:21:52;;;;;;;1.23;1.23;;;2.00;99.90;;;;;;5284393;28;20394;-74
2021/12/07 08:24:23;;;;;;;1.50;1.50;;;2.00;99.90;;;;;;5277087;28;20583;-74
2021/12/07 08:26:55;;;;;;;0.88;0.88;;;2.10;99.90;;;;;;5246285;28;20028;-74
2021/12/07 08:29:28;;;;;;;0.57;0.57;;;2.30;99.90;;;;;;5282457;28;20026;-73
2021/12/07 08:31:59;;;;;;;0.52;0.52;;;2.40;99.90;;;;;;5284047;28;20214;-75
2021/12/07 08:34:32;;;;;;;0.75;0.75;;;2.40;99.90;;;;;;5285517;28;20023;-74
2021/12/07 08:37:08;;;;;;;1.30;1.30;;;2.50;99.90;;;;;;5283624;28;20035;-74
2021/12/07 08:39:39;;;;;;;0.88;0.88;;;2.50;99.90;;;;;;5247920;28;20032;-74
2021/12/07 08:42:15;;;;;;;1.13;1.02;;;2.50;99.90;;;;;;5258377;28;20024;-74
2021/12/07 08:44:47;;;;;;;0.65;0.65;;;2.50;99.90;;;;;;5251178;28;20541;-73
2021/12/07 08:47:21;;;;;;;0.75;0.75;;;2.80;99.90;;;;;;5263635;28;20383;-74
2021/12/07 08:49:55;;;;;;;0.50;0.50;;;2.90;99.90;;;;;;5263776;28;20024;-74
2021/12/07 08:52:37;;;;;;;0.60;0.60;;;3.00;99.90;;;;;;5263465;28;20036;-75
2021/12/07 09:00:37;;;;;;;0.70;0.70;;;3.00;99.90;;;;;;5255819;28;20083;-74
2021/12/07 09:03:10;;;;;;;0.82;0.82;;;2.80;99.90;;;;;;5262229;28;20569;-74
2021/12/07 09:05:45;;;;;;;0.93;0.93;;;3.00;99.90;;;;;;5262235;28;20027;-74
2021/12/07 09:08:16;;;;;;;0.63;0.63;;;2.90;99.90;;;;;;5262296;28;20212;-73
2021/12/07 09:10:50;;;;;;;1.83;1.73;;;2.90;99.90;;;;;;5262320;28;20051;-73
2021/12/07 09:13:23;;;;;;;1.23;1.23;;;2.90;99.90;;;;;;5298200;27;20502;-73
2021/12/07 09:16:00;;;;;;;0.70;0.70;;;2.90;99.90;;;;;;5257496;28;20043;-73
2021/12/07 09:18:34;;;;;;;0.40;0.40;;;3.00;99.90;;;;;;5256155;28;20040;-73
2021/12/07 09:21:08;;;;;;;0.57;0.57;;;3.10;99.90;;;;;;5241699;28;20409;-73
2021/12/07 09:23:41;;;;;;;1.45;1.45;;;3.30;99.90;;;;;;5254862;28;20310;-73
2021/12/07 09:26:19;;;;;;;0.80;0.80;;;3.30;99.90;;;;;;5262964;28;20038;-75
2021/12/07 09:28:51;;;;;;;2.15;1.35;;;3.30;99.90;;;;;;5263763;28;20032;-74
2021/12/07 09:31:25;;;;;;;0.88;0.88;;;3.40;99.90;;;;;;5250885;28;20345;-73
2021/12/07 09:33:58;;;;;;;1.40;1.40;;;3.30;99.90;;;;;;5264228;28;20060;-75
2021/12/07 09:36:31;;;;;;;1.38;1.38;;;3.30;99.90;;;;;;5264565;28;20353;-73
2021/12/07 09:39:08;;;;;;;1.33;1.25;;;3.30;99.90;;;;;;5262488;28;20028;-73
2021/12/07 09:41:43;;;;;;;1.10;1.10;;;3.20;99.90;;;;;;5286229;28;20241;-74
2021/12/07 09:44:14;;;;;;;0.95;0.95;;;3.30;99.90;;;;;;5269560;28;20287;-75
2021/12/07 09:46:45;;;;;;;0.50;0.50;;;3.50;99.90;;;;;;5282266;28;20026;-75
2021/12/07 09:49:17;;;;;;;0.60;0.60;;;3.60;99.90;;;;;;5284146;28;20028;-73
2021/12/07 09:51:48;;;;;;;1.52;1.50;;;3.50;99.90;;;;;;5287427;28;20035;-72
2021/12/07 09:54:24;;;;;;;0.52;0.52;;;3.50;99.90;;;;;;5265840;28;20047;-73
2021/12/07 09:56:58;;;;;;;2.20;2.10;;;4.00;99.90;;;;;;5280148;28;20046;-74
2021/12/07 09:59:31;;;;;;;0.57;0.57;;;4.50;99.90;;;;;;5262766;28;20492;-74
2021/12/07 10:02:07;;;;;;;1.33;1.27;;;4.80;99.90;;;;;;5270182;28;20027;-74
2021/12/07 10:04:38;;;;;;;1.08;1.05;;;4.90;99.90;;;;;;5273005;28;20020;-73
2021/12/07 10:07:13;;;;;;;0.40;0.40;;;5.00;99.90;;;;;;5271570;28;20108;-73
2021/12/07 10:09:44;;;;;;;0.40;0.40;;;4.80;99.90;;;;;;5302678;27;20418;-74
2021/12/07 10:12:21;;;;;;;0.55;0.55;;;4.60;99.90;;;;;;5275197;28;20031;-74
2021/12/07 10:14:52;;;;;;;1.98;1.88;;;4.60;99.90;;;;;;5286420;28;20240;-74
2021/12/07 10:17:25;;;;;;;1.13;1.02;;;4.50;99.90;;;;;;5275144;28;20059;-73
2021/12/07 10:19:56;;;;;;;0.70;0.70;;;4.20;99.90;;;;;;5286409;28;20340;-73
2021/12/07 10:22:34;;;;;;;0.98;0.98;;;3.80;99.90;;;;;;5287385;28;20050;-73
2021/12/07 10:25:08;;;;;;;0.65;0.65;;;3.70;99.90;;;;;;5267924;28;20067;-74
2021/12/07 10:27:44;;;;;;;0.40;0.40;;;3.60;99.90;;;;;;5285233;27;20384;-75
2021/12/07 10:30:21;;;;;;;0.90;0.90;;;3.60;99.90;;;;;;5263023;28;20590;-74
2021/12/07 10:33:05;;;;;;;0.40;0.40;;;3.60;99.90;;;;;;5284861;28;20036;-75
2021/12/07 10:35:37;;;;;;;0.80;0.80;;;3.40;99.90;;;;;;5286509;27;20038;-74
2021/12/07 10:38:17;;;;;;;3.30;2.17;;;3.30;99.90;;;;;;5251754;28;20370;-73
2021/12/07 10:41:04;;;;;;;1.23;1.23;;;3.30;99.90;;;;;;5263711;28;20036;-75
2021/12/07 10:44:21;;;;;;;0.50;0.50;;;3.20;99.90;;;;;;5255297;28;20031;-73
2021/12/07 10:46:56;;;;;;;0.77;0.77;;;3.30;99.90;;;;;;5232648;28;20040;-74
2021/12/07 10:49:46;;;;;;;0.77;0.77;;;3.70;99.90;;;;;;5204891;28;20229;-73
2021/12/07 10:52:28;;;;;;;0.70;0.70;;;3.60;99.90;;;;;;5231331;28;20358;-73
2021/12/07 10:55:25;;;;;;;0.82;0.82;;;3.50;99.90;;;;;;5226246;28;20044;-74
2021/12/07 10:58:00;;;;;;;0.40;0.40;;;4.10;99.90;;;;;;5250383;28;20036;-74
2021/12/07 11:00:47;;;;;;;0.57;0.57;;;5.10;99.90;;;;;;5230689;28;20060;-74
2021/12/07 11:03:29;;;;;;;0.77;0.77;;;4.70;99.90;;;;;;5215492;28;20110;-75
2021/12/07 11:06:04;;;;;;;0.40;0.40;;;5.00;99.90;;;;;;5233109;28;20071;-75
2021/12/07 11:08:40;;;;;;;0.57;0.57;;;5.50;99.90;;;;;;5218502;28;20048;-75
2021/12/07 11:11:11;;;;;;;0.80;0.80;;;5.10;99.90;;;;;;5224729;28;20168;-74
2021/12/07 11:13:57;;;;;;;1.05;1.05;;;4.10;99.90;;;;;;5223911;28;20374;-74
2021/12/07 11:16:29;;;;;;;1.73;1.63;;;3.80;99.90;;;;;;5226795;28;20048;-74
2021/12/07 11:19:02;;;;;;;0.55;0.55;;;3.50;99.90;;;;;;5225506;28;20029;-74
2021/12/07 11:21:33;;;;;;;0.98;0.98;;;3.60;99.90;;;;;;5223130;28;20128;-73
2021/12/07 11:24:10;;;;;;;0.80;0.80;;;3.60;99.90;;;;;;5243976;28;20032;-74
2021/12/07 11:29:42;;;;;;;1.40;1.40;;;3.70;99.90;;;;;;5229266;28;20020;-73
2021/12/07 11:32:13;;;;;;;1.50;1.40;;;3.60;99.90;;;;;;5246272;28;20036;-73
2021/12/07 11:34:49;;;;;;;0.70;0.70;;;3.70;99.90;;;;;;5243168;28;20167;-73
2021/12/07 11:37:23;;;;;;;1.00;1.00;;;3.80;99.90;;;;;;5244030;28;20098;-74
2021/12/07 11:40:02;;;;;;;0.50;0.50;;;3.80;99.90;;;;;;5255835;28;20261;-73
2021/12/07 11:42:43;;;;;;;0.60;0.60;;;3.80;99.90;;;;;;5244782;28;20245;-73
2021/12/07 11:45:28;;;;;;;0.68;0.68;;;3.80;99.90;;;;;;5264573;28;20064;-73
2021/12/07 11:48:07;;;;;;;0.50;0.50;;;3.70;99.90;;;;;;5254971;28;20086;-73
2021/12/07 11:50:54;;;;;;;0.80;0.80;;;3.60;99.90;;;;;;5262947;28;20024;-73
2021/12/07 11:53:25;;;;;;;1.58;1.55;;;3.50;99.90;;;;;;5246222;28;20028;-73
2021/12/07 11:55:58;;;;;;;0.52;0.52;;;3.60;99.90;;;;;;5264007;28;20525;-73
2021/12/07 11:58:29;;;;;;;0.70;0.70;;;3.70;99.90;;;;;;5231907;28;20218;-74
2021/12/07 12:01:06;;;;;;;0.80;0.80;;;3.60;99.90;;;;;;5244492;28;20085;-74
2021/12/07 12:03:39;;;;;;;0.50;0.50;;;3.50;99.90;;;;;;5229693;28;20028;-73
2021/12/07 12:06:10;;;;;;;0.73;0.73;;;3.60;99.90;;;;;;5254450;28;20024;-73
2021/12/07 12:08:49;;;;;;;1.50;1.45;;;3.70;99.90;;;;;;5262514;28;20339;-73
2021/12/07 12:11:49;;;;;;;0.50;0.50;;;3.70;99.90;;;;;;5245981;28;20085;-73
2021/12/07 12:14:43;;;;;;;1.02;1.02;;;3.80;99.90;;;;;;5240126;28;20032;-74
2021/12/07 12:17:51;;;;;;;0.63;0.63;;;3.80;99.90;;;;;;5222187;28;20156;-73
2021/12/07 12:21:03;;;;;;;1.40;1.40;;;3.80;99.90;;;;;;5232889;28;20044;-73
2021/12/07 12:24:16;;;;;;;0.40;0.40;;;3.90;99.90;;;;;;5236936;28;20032;-74
2021/12/07 12:27:04;;;;;;;0.73;0.73;;;4.10;99.90;;;;;;5208540;28;20036;-73
2021/12/07 12:29:40;;;;;;;0.93;0.93;;;4.20;99.90;;;;;;5224418;28;20630;-74
2021/12/07 12:32:14;;;;;;;0.50;0.50;;;4.50;99.90;;;;;;5191389;28;20040;-73
2021/12/07 12:34:50;;;;;;;0.95;0.95;;;4.30;99.90;;;;;;5225049;28;20086;-73
2021/12/07 12:37:30;;;;;;;0.98;0.98;;;4.20;99.90;;;;;;5233631;28;20036;-73
2021/12/07 12:40:10;;;;;;;0.50;0.50;;;4.20;99.90;;;;;;5246794;28;20032;-73
2021/12/07 12:42:48;;;;;;;0.93;0.93;;;4.20;99.90;;;;;;5217697;28;20030;-73
2021/12/07 12:45:29;;;;;;;0.70;0.70;;;4.30;99.90;;;;;;5271949;28;20039;-73
2021/12/07 12:48:06;;;;;;;0.70;0.70;;;4.00;99.90;;;;;;5283166;28;20020;-73
2021/12/07 12:50:43;;;;;;;0.40;0.40;;;3.80;99.90;;;;;;5282563;28;20087;-73
2021/12/07 12:53:21;;;;;;;0.52;0.52;;;3.80;99.90;;;;;;5276185;27;20031;-73
2021/12/07 12:55:54;;;;;;;1.17;1.17;;;3.80;99.90;;;;;;5269301;27;20023;-73
2021/12/07 12:58:29;;;;;;;0.50;0.50;;;3.80;99.90;;;;;;5247403;28;20035;-73
2021/12/07 13:01:28;;;;;;;0.75;0.75;;;3.90;99.90;;;;;;5283440;28;20374;-73
2021/12/07 13:04:10;;;;;;;0.70;0.70;;;4.00;99.90;;;;;;5264204;28;20340;-73
2021/12/07 13:07:03;;;;;;;0.40;0.40;;;4.30;99.90;;;;;;5283779;28;20032;-73
2021/12/07 13:09:44;;;;;;;0.60;0.60;;;4.30;99.90;;;;;;5284108;28;20027;-73
2021/12/07 13:12:21;;;;;;;0.40;0.40;;;4.30;99.90;;;;;;5283949;28;20035;-74
2021/12/07 13:15:00;;;;;;;1.75;1.65;;;5.40;99.90;;;;;;5275878;28;20035;-74
2021/12/07 13:17:46;;;;;;;0.85;0.85;;;5.60;99.90;;;;;;5284225;28;20023;-74
2021/12/07 13:20:39;;;;;;;0.95;0.95;;;5.40;99.90;;;;;;5283122;28;20075;-74
2021/12/07 13:23:15;;;;;;;0.80;0.80;;;5.10;99.90;;;;;;5284753;27;20051;-74
2021/12/07 13:25:52;;;;;;;0.63;0.63;;;4.80;99.90;;;;;;5283641;28;20094;-74
2021/12/07 13:28:29;;;;;;;1.05;1.05;;;4.50;99.90;;;;;;5246887;28;20119;-74
2021/12/07 13:31:14;;;;;;;0.73;0.73;;;4.20;99.90;;;;;;5257469;28;20245;-74
2021/12/07 13:33:57;;;;;;;0.60;0.60;;;3.90;99.90;;;;;;5282325;28;20027;-73
2021/12/07 13:36:46;;;;;;;0.63;0.63;;;3.80;99.90;;;;;;5266825;28;20058;-74
2021/12/07 13:39:19;;;;;;;0.40;0.40;;;3.80;99.90;;;;;;5287581;28;20046;-73
2021/12/07 13:42:17;;;;;;;0.63;0.63;;;3.70;99.90;;;;;;5281703;28;20046;-74
2021/12/07 13:45:05;;;;;;;0.50;0.50;;;3.80;99.90;;;;;;5255409;28;20101;-73
2021/12/07 13:47:44;;;;;;;0.70;0.70;;;3.80;99.90;;;;;;5263882;28;20567;-75
2021/12/07 13:50:26;;;;;;;0.60;0.60;;;3.70;99.90;;;;;;5268167;28;20028;-73
2021/12/07 13:53:01;;;;;;;0.77;0.77;;;3.80;99.90;;;;;;5264056;28;20032;-73
2021/12/07 13:55:36;;;;;;;0.50;0.50;;;3.80;99.90;;;;;;5253788;28;20036;-74
2021/12/07 13:58:14;;;;;;;0.68;0.68;;;3.90;99.90;;;;;;5262557;28;20594;-75
2021/12/07 14:00:45;;;;;;;0.57;0.57;;;3.90;99.90;;;;;;5266777;28;20460;-73
2021/12/07 14:03:22;;;;;;;1.52;1.42;;;4.00;99.90;;;;;;5247636;28;20024;-73
2021/12/07 14:05:57;;;;;;;1.02;0.98;;;3.90;99.90;;;;;;5252020;28;20059;-74
2021/12/07 14:08:31;;;;;;;0.60;0.60;;;3.90;99.90;;;;;;5258120;28;20047;-73
2021/12/07 14:11:02;;;;;;;0.60;0.60;;;3.80;99.90;;;;;;5262661;28;20238;-74
2021/12/07 14:13:39;;;;;;;0.40;0.40;;;3.70;99.90;;;;;;5265524;28;20035;-74
2021/12/07 14:16:16;;;;;;;0.50;0.50;;;3.70;99.90;;;;;;5267815;28;20073;-73
2021/12/07 14:18:50;;;;;;;1.25;1.20;;;3.70;99.90;;;;;;5260992;28;20348;-73
2021/12/07 14:21:22;;;;;;;0.63;0.63;;;3.70;99.90;;;;;;5242751;28;20044;-73
2021/12/07 14:24:04;;;;;;;0.60;0.60;;;3.60;99.90;;;;;;5266389;28;20028;-73
2021/12/07 14:26:38;;;;;;;1.30;0.80;;;3.60;99.90;;;;;;5262556;28;20036;-73
2021/12/07 14:29:18;;;;;;;0.50;0.50;;;3.60;99.90;;;;;;5262803;28;20031;-72
2021/12/07 14:31:58;;;;;;;0.63;0.63;;;3.50;99.90;;;;;;5265375;28;20055;-73
2021/12/07 14:34:32;;;;;;;0.40;0.40;;;3.50;99.90;;;;;;5264797;28;20272;-72
2021/12/07 14:37:09;;;;;;;1.40;1.40;;;3.40;99.90;;;;;;5257213;28;20096;-72
2021/12/07 14:39:46;;;;;;;0.90;0.90;;;3.40;99.90;;;;;;5261781;28;20055;-73
2021/12/07 14:42:22;;;;;;;0.93;0.93;;;3.50;99.90;;;;;;5261915;28;20036;-73
2021/12/07 14:45:02;;;;;;;0.50;0.50;;;3.50;99.90;;;;;;5257778;28;20095;-73
2021/12/07 14:47:32;;;;;;;0.40;0.40;;;3.40;99.90;;;;;;5262409;28;20532;-74
2021/12/07 14:50:04;;;;;;;0.50;0.50;;;3.40;99.90;;;;;;5260485;28;20042;-74
2021/12/07 14:52:36;;;;;;;0.50;0.50;;;3.40;99.90;;;;;;5263025;28;20044;-73
2021/12/07 14:55:07;;;;;;;0.60;0.60;;;3.40;99.90;;;;;;5261092;28;20268;-72
2021/12/07 14:57:40;;;;;;;0.40;0.40;;;3.40;99.90;;;;;;5263681;28;20044;-73
2021/12/07 15:00:16;;;;;;;0.50;0.50;;;3.40;99.90;;;;;;5261662;28;20039;-73
2021/12/07 15:02:48;;;;;;;0.50;0.50;;;3.40;99.90;;;;;;5262622;28;20036;-73
2021/12/07 15:05:22;;;;;;;0.40;0.40;;;3.40;99.90;;;;;;5242301;28;20036;-73
2021/12/07 15:07:53;;;;;;;0.50;0.50;;;3.40;99.90;;;;;;5261154;28;20028;-73
2021/12/07 15:10:24;;;;;;;0.70;0.70;;;3.40;99.90;;;;;;5257736;28;20419;-73
2021/12/07 15:12:57;;;;;;;0.40;0.40;;;3.40;99.90;;;;;;5259241;28;20044;-73
2021/12/07 15:15:28;;;;;;;0.90;0.90;;;3.40;99.90;;;;;;5259662;28;20225;-72
2021/12/07 15:18:02;;;;;;;0.70;0.70;;;3.40;99.90;;;;;;5261775;28;20059;-73
2021/12/07 15:20:33;;;;;;;0.60;0.60;;;3.40;99.90;;;;;;5258294;28;20039;-73
2021/12/07 15:23:07;;;;;;;0.70;0.70;;;3.40;99.90;;;;;;5246238;28;20044;-73